Terminal Aerodrome Forecast
Issued by NWS

Home | Current Version | Previous Version | Text Only | Print | Product List | Glossary On
Versions: 1 2 3 4 5 6 7 8 9 10 11 12 13 14 15 16 17 18 19 20 21 22 23 24
000
FTUS41 KILN 301259 AAA
TAFLUK
TAF AMD
KLUK 301259Z 3013/3112 00000KT 5SM BR SCT060 SCT150
     FM301400 20004KT P6SM SCT025 SCT150
     FM301800 21007KT P6SM VCSH BKN040
     FM310000 22003KT P6SM SCT150
      TEMPO 3108/3112 00000KT 3SM BR SKC=

USA.gov is the U.S. government's official web portal to all federal, state and local government web resources and services.